createdAt,value
2023-04-03T00:00:25.901Z,4.30
2023-04-03T00:05:43.726Z,4.10
2023-04-03T00:10:39.508Z,4.10
2023-04-03T00:15:32.091Z,4.10
2023-04-03T00:20:24.428Z,3.90
2023-04-03T00:25:16.544Z,3.80
2023-04-03T00:30:13.120Z,3.80
2023-04-03T00:35:06.705Z,3.80
2023-04-03T00:39:58.879Z,3.70
2023-04-03T00:44:53.584Z,3.70
2023-04-03T00:49:46.597Z,3.70
2023-04-03T00:54:39.429Z,3.60
2023-04-03T00:59:35.414Z,3.60
2023-04-03T01:04:34.302Z,3.50
2023-04-03T01:14:41.348Z,3.40
2023-04-03T01:19:35.222Z,3.40
2023-04-03T01:24:37.414Z,3.30
2023-04-03T01:29:32.222Z,3.20
2023-04-03T01:34:25.456Z,3.10
2023-04-03T01:39:18.462Z,3.10
2023-04-03T01:44:10.915Z,3.10
2023-04-03T01:49:03.740Z,3.00
2023-04-03T01:53:55.809Z,2.90
2023-04-03T01:58:47.958Z,2.80
2023-04-03T02:03:40.472Z,2.70
2023-04-03T02:08:32.741Z,2.60
2023-04-03T02:13:25.175Z,2.60
2023-04-03T02:18:18.096Z,2.50
2023-04-03T02:23:10.511Z,2.40
2023-04-03T02:28:02.506Z,2.30
2023-04-03T02:32:54.691Z,2.30
2023-04-03T02:37:47.057Z,2.30
2023-04-03T02:42:39.977Z,2.20
2023-04-03T02:47:32.380Z,2.10
2023-04-03T02:52:24.633Z,1.90
2023-04-03T02:57:20.743Z,1.80
2023-04-03T03:02:13.050Z,1.60
2023-04-03T03:07:05.564Z,1.50
2023-04-03T03:11:58.061Z,1.40
2023-04-03T03:16:50.616Z,1.20
2023-04-03T03:21:42.816Z,1.10
2023-04-03T03:26:35.020Z,1.10
2023-04-03T03:31:28.074Z,1.00
2023-04-03T03:36:20.160Z,0.80
2023-04-03T03:41:12.238Z,0.80
2023-04-03T03:46:06.813Z,0.70
2023-04-03T03:50:58.955Z,0.70
2023-04-03T03:55:56.807Z,0.60
2023-04-03T04:00:51.705Z,0.40
2023-04-03T04:05:44.945Z,0.30
2023-04-03T04:10:39.176Z,0.30
2023-04-03T04:15:34.030Z,0.20
2023-04-03T04:20:27.692Z,0.10
2023-04-03T04:25:19.776Z,0.10
2023-04-03T04:30:13.301Z,0.10
2023-04-03T04:35:06.766Z,0.10
2023-04-03T04:40:01.564Z,0.20
2023-04-03T04:44:54.710Z,0.10
2023-04-03T04:49:48.518Z,0.20
2023-04-03T04:54:41.279Z,0.20
2023-04-03T04:59:34.324Z,0.30
2023-04-03T05:04:27.222Z,0.30
2023-04-03T05:09:25.639Z,0.30
2023-04-03T05:14:18.861Z,0.40
2023-04-03T05:19:11.783Z,0.50
2023-04-03T05:24:06.609Z,0.70
2023-04-03T05:29:00.413Z,0.90
2023-04-03T05:33:52.923Z,1.10
2023-04-03T05:38:45.019Z,1.20
2023-04-03T05:43:40.043Z,1.40
2023-04-03T05:48:34.272Z,1.70
2023-04-03T05:53:30.634Z,2.10
2023-04-03T05:58:26.629Z,2.30
2023-04-03T06:03:19.669Z,2.50
2023-04-03T06:08:12.016Z,3.00
2023-04-03T06:13:04.152Z,3.80
2023-04-03T06:17:56.374Z,4.40
2023-04-03T06:22:48.656Z,5.80
2023-04-03T06:27:40.841Z,5.50
2023-04-03T06:32:33.085Z,5.00
2023-04-03T06:37:29.875Z,4.90
2023-04-03T06:42:22.321Z,4.40
2023-04-03T06:47:24.186Z,4.40
2023-04-03T06:52:16.373Z,5.10
2023-04-03T06:57:09.287Z,5.30
2023-04-03T07:02:01.668Z,5.60
2023-04-03T07:06:54.289Z,5.70
2023-04-03T07:11:47.061Z,5.20
2023-04-03T07:16:41.040Z,4.70
2023-04-03T07:21:35.614Z,4.70
2023-04-03T07:26:27.817Z,4.50
2023-04-03T07:31:20.223Z,4.40
2023-04-03T07:36:17.584Z,4.20
2023-04-03T07:41:16.478Z,4.40
2023-04-03T07:46:08.590Z,4.50
2023-04-03T07:51:02.717Z,4.90
2023-04-03T07:55:56.594Z,4.90
2023-04-03T08:00:49.030Z,5.00
2023-04-03T08:05:46.983Z,5.20
2023-04-03T08:10:39.362Z,5.30
2023-04-03T08:15:33.031Z,5.70
2023-04-03T08:20:25.910Z,6.00
2023-04-03T08:25:18.816Z,6.80
2023-04-03T08:30:11.826Z,6.80
2023-04-03T08:35:05.748Z,6.60
2023-04-03T08:39:57.794Z,6.30
2023-04-03T08:45:22.402Z,6.20
2023-04-03T08:50:19.506Z,6.10
2023-04-03T08:55:46.182Z,6.20
2023-04-03T09:00:56.963Z,6.50
2023-04-03T09:05:52.011Z,6.70
2023-04-03T09:10:44.388Z,7.50
2023-04-03T09:15:39.401Z,8.10
2023-04-03T09:20:43.316Z,8.00
2023-04-03T09:25:39.667Z,8.00
2023-04-03T09:30:31.731Z,7.60
2023-04-03T09:35:36.241Z,7.20
2023-04-03T09:40:41.544Z,8.30
2023-04-03T09:45:36.230Z,9.30
2023-04-03T09:50:28.948Z,12.70
2023-04-03T09:55:23.204Z,15.30
2023-04-03T10:00:26.349Z,13.30
2023-04-03T10:05:34.373Z,12.40
2023-04-03T10:10:27.219Z,11.40
2023-04-03T10:15:19.845Z,11.50
2023-04-03T10:20:33.551Z,16.90
2023-04-03T10:25:43.160Z,15.50
2023-04-03T10:30:38.510Z,14.60
2023-04-03T10:35:40.971Z,16.60
2023-04-03T10:40:53.095Z,18.60
2023-04-03T10:46:12.340Z,17.00
2023-04-03T10:51:29.033Z,14.20
2023-04-03T10:56:23.984Z,11.90
2023-04-03T11:01:22.814Z,10.00
2023-04-03T11:06:18.326Z,10.70
2023-04-03T11:11:16.185Z,10.60
2023-04-03T11:16:09.495Z,10.60
2023-04-03T11:21:15.514Z,9.90
2023-04-03T11:26:13.728Z,10.60
2023-04-03T11:31:32.010Z,11.10
2023-04-03T11:36:37.545Z,11.40
2023-04-03T11:41:33.301Z,10.90
2023-04-03T11:46:51.584Z,11.40
2023-04-03T11:51:45.004Z,10.10
2023-04-03T11:56:37.173Z,8.70
2023-04-03T12:01:47.747Z,8.50
2023-04-03T12:06:39.671Z,8.50
2023-04-03T12:11:33.307Z,9.10
2023-04-03T12:16:37.300Z,9.90
2023-04-03T12:21:32.692Z,10.70
2023-04-03T12:26:38.413Z,9.70
2023-04-03T12:31:45.384Z,9.60
2023-04-03T12:36:59.604Z,8.70
2023-04-03T12:42:21.824Z,8.00
2023-04-03T12:47:39.292Z,8.10
2023-04-03T12:52:41.218Z,8.40
2023-04-03T12:57:33.847Z,8.50
2023-04-03T13:02:29.383Z,8.50
2023-04-03T13:07:26.574Z,8.50
2023-04-03T13:12:19.013Z,8.50
2023-04-03T13:17:16.412Z,8.50
2023-04-03T13:22:44.350Z,8.80
2023-04-03T13:27:36.911Z,8.80
2023-04-03T13:32:30.965Z,8.40
2023-04-03T13:37:54.294Z,8.50
2023-04-03T13:42:47.157Z,8.60
2023-04-03T13:47:42.794Z,8.70
2023-04-03T13:52:43.024Z,8.10
2023-04-03T13:57:35.354Z,7.80
2023-04-03T14:02:34.202Z,7.90
2023-04-03T14:07:26.923Z,8.10
2023-04-03T14:12:32.649Z,8.00
2023-04-03T14:17:27.552Z,7.60
2023-04-03T14:22:33.565Z,7.40
2023-04-03T14:27:29.692Z,7.50
2023-04-03T14:32:23.577Z,7.90
2023-04-03T14:37:19.710Z,7.20
2023-04-03T14:42:16.583Z,7.30
2023-04-03T14:47:29.986Z,7.60
2023-04-03T14:52:30.000Z,7.60
2023-04-03T14:57:26.062Z,7.60
2023-04-03T15:02:29.205Z,7.80
2023-04-03T15:07:22.023Z,7.60
2023-04-03T15:17:20.385Z,7.30
2023-04-03T15:22:20.573Z,7.30
2023-04-03T15:27:14.328Z,7.20
2023-04-03T15:32:06.734Z,6.80
2023-04-03T15:36:58.948Z,6.60
2023-04-03T15:41:52.977Z,6.80
2023-04-03T15:46:46.654Z,6.90
2023-04-03T15:51:38.731Z,6.70
2023-04-03T15:56:31.012Z,6.30
2023-04-03T16:01:23.477Z,6.40
2023-04-03T16:06:17.016Z,6.30
2023-04-03T16:11:09.675Z,6.40
2023-04-03T16:16:02.871Z,6.40
2023-04-03T16:20:55.736Z,6.20
2023-04-03T16:25:48.352Z,6.20
2023-04-03T16:30:42.273Z,6.00
2023-04-03T16:35:34.392Z,5.90
2023-04-03T16:40:26.450Z,5.80
2023-04-03T16:45:18.631Z,5.80
2023-04-03T16:50:11.645Z,5.70
2023-04-03T16:55:04.190Z,5.50
2023-04-03T16:59:56.410Z,5.40
2023-04-03T17:04:50.099Z,5.30
2023-04-03T17:09:43.501Z,5.20
2023-04-03T17:14:35.803Z,5.00
2023-04-03T17:19:29.134Z,4.70
2023-04-03T17:24:21.212Z,4.50
2023-04-03T17:29:13.295Z,4.20
2023-04-03T17:34:05.849Z,4.00
2023-04-03T17:38:57.902Z,3.80
2023-04-03T17:43:50.697Z,3.70
2023-04-03T17:48:42.924Z,3.50
2023-04-03T17:53:35.139Z,3.40
2023-04-03T17:58:27.677Z,3.20
2023-04-03T18:03:19.792Z,3.00
2023-04-03T18:08:11.933Z,2.90
2023-04-03T18:13:07.326Z,2.70
2023-04-03T18:17:59.450Z,2.60
2023-04-03T18:22:52.790Z,2.60
2023-04-03T18:27:47.286Z,2.60
2023-04-03T18:32:39.743Z,2.60
2023-04-03T18:37:31.937Z,2.60
2023-04-03T18:42:26.204Z,2.60
2023-04-03T18:47:18.354Z,2.70
2023-04-03T18:52:11.964Z,2.70
2023-04-03T18:57:04.751Z,2.80
2023-04-03T19:01:57.299Z,3.00
2023-04-03T19:06:49.527Z,3.10
2023-04-03T19:11:41.574Z,3.30
2023-04-03T19:16:34.102Z,3.40
2023-04-03T19:21:26.337Z,3.50
2023-04-03T19:26:18.783Z,3.70
2023-04-03T19:31:16.732Z,3.80
2023-04-03T19:36:10.452Z,3.80
2023-04-03T19:41:08.971Z,3.80
2023-04-03T19:46:01.524Z,3.70
2023-04-03T19:50:53.624Z,3.80
2023-04-03T19:55:49.416Z,3.90
2023-04-03T20:00:41.804Z,3.90
2023-04-03T20:05:34.034Z,3.90
2023-04-03T20:10:26.510Z,3.90
2023-04-03T20:15:19.052Z,3.80
2023-04-03T20:20:11.326Z,3.80
2023-04-03T20:25:09.374Z,3.80
2023-04-03T20:30:09.088Z,3.90
2023-04-03T20:35:03.887Z,3.90
2023-04-03T20:39:57.871Z,4.00
2023-04-03T20:44:49.993Z,4.00
2023-04-03T20:49:45.145Z,4.10
2023-04-03T20:54:37.716Z,4.00
2023-04-03T20:59:31.976Z,4.00
2023-04-03T21:04:42.300Z,4.10
2023-04-03T21:10:13.684Z,4.10
2023-04-03T21:15:45.212Z,4.10
2023-04-03T21:20:37.331Z,4.20
2023-04-03T21:25:29.747Z,4.10
2023-04-03T21:30:22.799Z,4.10
2023-04-03T21:35:15.995Z,4.10
2023-04-03T21:40:08.462Z,4.00
2023-04-03T21:45:00.809Z,4.00
2023-04-03T21:49:52.864Z,4.00
2023-04-03T21:54:45.052Z,4.00
2023-04-03T21:59:38.395Z,3.90
2023-04-03T22:04:30.547Z,4.00
2023-04-03T22:09:22.808Z,4.00
2023-04-03T22:14:14.969Z,3.90
2023-04-03T22:19:07.285Z,3.90
2023-04-03T22:23:59.535Z,3.90
2023-04-03T22:28:51.615Z,3.90
2023-04-03T22:33:45.559Z,3.80
2023-04-03T22:38:39.135Z,3.80
2023-04-03T22:43:33.245Z,3.80
2023-04-03T22:48:25.240Z,3.80
2023-04-03T22:53:18.251Z,3.80
2023-04-03T22:58:10.234Z,3.80
2023-04-03T23:03:02.615Z,3.80
2023-04-03T23:07:54.815Z,3.70
2023-04-03T23:12:46.934Z,3.70
2023-04-03T23:17:39.365Z,3.70
2023-04-03T23:22:31.934Z,3.70
2023-04-03T23:27:24.241Z,3.70
2023-04-03T23:32:16.740Z,3.70
2023-04-03T23:37:12.840Z,3.60
2023-04-03T23:42:09.329Z,3.60
2023-04-03T23:47:01.450Z,3.50
2023-04-03T23:51:54.212Z,3.60
2023-04-03T23:56:46.301Z,3.50
